Home > Products > Valid Products > MTR

000
SAUS43 KUNR 020458
MTR2WX
METAR K2WX 020456Z AUTO 27006KT 19/18 A2997 RMK AO1 SLP131 T01890178





000
SAUS43 KUNR 020457
MTRD07
METAR KD07 020456Z AUTO 35004KT 19/17 A3000 RMK AO1 SLP148 T01890167





000
SAUS43 KUNR 020358
MTR2WX
METAR K2WX 020356Z AUTO 14008KT 19/18 A2996 RMK AO1 SLP128 P0001
T01940178





000
SAUS43 KUNR 020358
MTR2WX
METAR K2WX 020356Z AUTO 14008KT 19/18 A2996 RMK AO1 SLP128 P0001
T01940178





000
SAUS43 KUNR 020357
MTRD07
METAR KD07 020356Z AUTO 03006KT 19/17 A3000 RMK AO1 SLP151 T01940167





000
SAUS43 KUNR 020357
MTRD07
METAR KD07 020356Z AUTO 03006KT 19/17 A3000 RMK AO1 SLP151 T01940167





000
SAUS43 KUNR 020258
MTR2WX
METAR K2WX 020256Z AUTO 05009KT 21/17 A2998 RMK AO1 SLP133 T02060172
53014





000
SAUS43 KUNR 020258
MTR2WX
METAR K2WX 020256Z AUTO 05009KT 21/17 A2998 RMK AO1 SLP133 T02060172
53014





000
SAUS43 KUNR 020257
MTRD07
METAR KD07 020256Z AUTO 02005KT 21/17 A3000 RMK AO1 SLP148 T02060167
53011





000
SAUS43 KUNR 020157
MTR2WX
METAR K2WX 020156Z AUTO 06009KT 22/17 A2994 RMK AO1 SLP117 T02220172





000
SAUS43 KUNR 020157
MTR2WX
METAR K2WX 020156Z AUTO 06009KT 22/17 A2994 RMK AO1 SLP117 T02220172





000
SAUS43 KUNR 020157
MTRD07
METAR KD07 020156Z AUTO 05004KT 22/17 A2997 RMK AO1 SLP137 T02220167





000
SAUS43 KUNR 020157
MTRD07
METAR KD07 020156Z AUTO 05004KT 22/17 A2997 RMK AO1 SLP137 T02220167





000
SAUS43 KUNR 020058
MTR2WX
METAR K2WX 020056Z AUTO 05009KT 24/17 A2992 RMK AO1 SLP113 T02390172





000
SAUS43 KUNR 020057
MTRD07
METAR KD07 020056Z AUTO 02008KT 24/16 A2997 RMK AO1 SLP137 T02440161





000
SAUS43 KUNR 012358
MTR2WX
METAR K2WX 012356Z AUTO 02008KT 25/17 A2994 RMK AO1 SLP117 T02500172
10272 20222 55004





000
SAUS43 KUNR 012357
MTRD07
METAR KD07 012356Z AUTO 03007KT 26/17 A2996 RMK AO1 SLP134 T02560167
10267 20222 56005





000
SAUS43 KUNR 012258
MTR2WX
METAR K2WX 012256Z AUTO 02007KT 26/16 A2993 RMK AO1 SLP115 T02610156





000
SAUS43 KUNR 012258
MTR2WX
METAR K2WX 012256Z AUTO 02007KT 26/16 A2993 RMK AO1 SLP115 T02610156





000
SAUS43 KUNR 012257
MTRD07
METAR KD07 012256Z AUTO 02006KT 26/17 A2997 RMK AO1 SLP136 T02560167





000
SAUS43 KUNR 012257
MTRD07
METAR KD07 012256Z AUTO 02006KT 26/17 A2997 RMK AO1 SLP136 T02560167





000
SAUS43 KUNR 012157
MTR2WX
METAR K2WX 012156Z AUTO VRB03KT 27/17 A2994 RMK AO1 SLP117 T02670167





000
SAUS43 KUNR 012157
MTRD07
METAR KD07 012156Z AUTO 05006KT 25/16 A2997 RMK AO1 SLP138 T02500161





000
SAUS43 KUNR 012057
MTRD07
METAR KD07 012056Z AUTO 01008KT 25/17 A2998 RMK AO1 SLP141 T02500167
50002





000
SAUS43 KUNR 012057
MTR2WX
METAR K2WX 012056Z AUTO 36004KT 26/17 A2995 RMK AO1 SLP122 T02560167
58004





000
SAUS43 KUNR 012057
MTRD07
METAR KD07 012056Z AUTO 01008KT 25/17 A2998 RMK AO1 SLP141 T02500167
50002





000
SAUS43 KUNR 012057
MTR2WX
METAR K2WX 012056Z AUTO 36004KT 26/17 A2995 RMK AO1 SLP122 T02560167
58004





000
SAUS43 KUNR 011957
MTRD07
METAR KD07 011956Z AUTO 02007KT 24/17 A2999 RMK AO1 SLP144 T02440167





000
SAUS43 KUNR 011957
MTR2WX
METAR K2WX 011956Z AUTO 31006KT 26/17 A2995 RMK AO1 SLP122 T02560167





000
SAUS43 KUNR 011857
MTRD07
METAR KD07 011856Z AUTO 02006KT 24/17 A2998 RMK AO1 SLP141 T02390167





000
SAUS43 KUNR 011857
MTRD07
METAR KD07 011856Z AUTO 02006KT 24/17 A2998 RMK AO1 SLP141 T02390167





000
SAUS43 KUNR 011857
MTR2WX
METAR K2WX 011856Z AUTO 29006KT 24/17 A2996 RMK AO1 SLP125 T02390167





000
SAUS43 KUNR 011857
MTR2WX
METAR K2WX 011856Z AUTO 29006KT 24/17 A2996 RMK AO1 SLP125 T02390167





000
SAUS43 KUNR 011757
MTRD07
METAR KD07 011756Z AUTO 03009KT 23/17 A2997 RMK AO1 SLP139 T02280172
10233 20156 53006





000
SAUS43 KUNR 011757
MTR2WX
METAR K2WX 011756Z AUTO VRB05KT 22/17 A2996 RMK AO1 SLP127 T02220167
10222 20167 53010





000
SAUS43 KUNR 011657
MTRD07
METAR KD07 011656Z AUTO VRB03KT 23/18 A2996 RMK AO1 SLP134 T02280183





000
SAUS43 KUNR 011657
MTR2WX
METAR K2WX 011656Z AUTO 05006KT 22/17 A2995 RMK AO1 SLP125 T02170167





000
SAUS43 KUNR 011557
MTR2WX
METAR K2WX 011556Z AUTO 03010KT 21/17 A2994 RMK AO1 SLP119 T02110167





000
SAUS43 KUNR 011557
MTRD07
METAR KD07 011556Z AUTO 01005KT 18/17 A2996 RMK AO1 SLP137 T01830172





000
SAUS43 KUNR 011458
MTR2WX
METAR K2WX 011456Z AUTO 35012KT 22/17 A2993 RMK AO1 SLP113 T02170167
53015





000
SAUS43 KUNR 011457
MTRD07
METAR KD07 011456Z AUTO 36006KT 18/17 A2995 RMK AO1 SLP132 T01780167
53017





000
SAUS43 KUNR 011358
MTR2WX
METAR K2WX 011356Z AUTO 33016KT 21/15 A2990 RMK AO1 SLP103 T02060150





000
SAUS43 KUNR 011358
MTR2WX
METAR K2WX 011356Z AUTO 33016KT 21/15 A2990 RMK AO1 SLP103 T02060150





000
SAUS43 KUNR 011357
MTRD07
METAR KD07 011356Z AUTO 00000KT 17/17 A2993 RMK AO1 SLP124 T01720167





000
SAUS43 KUNR 011357
MTRD07
METAR KD07 011356Z AUTO 00000KT 17/17 A2993 RMK AO1 SLP124 T01720167





000
SAUS43 KUNR 011258
MTR2WX
METAR K2WX 011256Z AUTO 31015KT 19/14 A2990 RMK AO1 SLP099 T01940144





000
SAUS43 KUNR 011258
MTR2WX
METAR K2WX 011256Z AUTO 31015KT 19/14 A2990 RMK AO1 SLP099 T01940144





000
SAUS43 KUNR 011257
MTRD07
METAR KD07 011256Z AUTO 04007KT 16/15 A2992 RMK AO1 SLP122 T01610150





000
SAUS43 KUNR 011257
MTRD07
METAR KD07 011256Z AUTO 04007KT 16/15 A2992 RMK AO1 SLP122 T01610150





000
SAUS43 KUNR 011158
MTR2WX
METAR K2WX 011156Z AUTO 31011KT 17/14 A2988 RMK AO1 SLP095 T01670144
10189 20156 53007





000
SAUS43 KUNR 011158
MTR2WX
METAR K2WX 011156Z AUTO 31011KT 17/14 A2988 RMK AO1 SLP095 T01670144
10189 20156 53007





000
SAUS43 KUNR 011157
MTRD07
METAR KD07 011156Z AUTO 06004KT 16/14 A2990 RMK AO1 SLP113 70005
T01560144 10172 20150 53005





000
SAUS43 KUNR 011157
MTRD07
METAR KD07 011156Z AUTO 06004KT 16/14 A2990 RMK AO1 SLP113 70005
T01560144 10172 20150 53005





000
SAUS43 KUNR 011057
MTR2WX
METAR K2WX 011056Z AUTO 01004KT 16/16 A2987 RMK AO1 SLP091 T01610156





000
SAUS43 KUNR 011057
MTRD07
METAR KD07 011056Z AUTO 31004KT 15/14 A2990 RMK AO1 SLP113 T01500139





000
SAUS43 KUNR 011057
MTRD07
METAR KD07 011056Z AUTO 31004KT 15/14 A2990 RMK AO1 SLP113 T01500139





000
SAUS43 KUNR 011057
MTR2WX
METAR K2WX 011056Z AUTO 01004KT 16/16 A2987 RMK AO1 SLP091 T01610156





000
SAUS43 KUNR 010957
MTRD07
METAR KD07 010956Z AUTO 11004KT 16/14 A2988 RMK AO1 SLP107 T01560144





000
SAUS43 KUNR 010957
MTR2WX
METAR K2WX 010956Z AUTO 00000KT 18/16 A2986 RMK AO1 SLP089 T01780161





000
SAUS43 KUNR 010857
MTR2WX
METAR K2WX 010856Z AUTO 29005KT 16/14 A2986 RMK AO1 SLP090 T01560144
52001





000
SAUS43 KUNR 010857
MTRD07
METAR KD07 010856Z AUTO 08006KT 15/14 A2988 RMK AO1 SLP106 T01500139
50002





000
SAUS43 KUNR 010757
MTRD07
METAR KD07 010756Z AUTO 03006KT 16/14 A2989 RMK AO1 SLP109 T01560144





000
SAUS43 KUNR 010757
MTR2WX
METAR K2WX 010756Z AUTO 15004KT 17/16 A2985 RMK AO1 SLP087 T01720156





000
SAUS43 KUNR 010657
MTR2WX
METAR K2WX 010656Z AUTO 19006KT 18/16 A2986 RMK AO1 SLP089 T01830161
402940172





000
SAUS43 KUNR 010657
MTRD07
METAR KD07 010656Z AUTO 20007KT 17/16 A2988 RMK AO1 SLP104 T01670156
402670167





000
SAUS43 KUNR 010657
MTR2WX
METAR K2WX 010656Z AUTO 19006KT 18/16 A2986 RMK AO1 SLP089 T01830161
402940172





000
SAUS43 KUNR 010657
MTRD07
METAR KD07 010656Z AUTO 20007KT 17/16 A2988 RMK AO1 SLP104 T01670156
402670167





000
SAUS43 KUNR 010557
MTR2WX
METAR K2WX 010556Z AUTO 27004KT 18/16 A2985 RMK AO1 SLP088 T01830156
10289 20178 51010





000
SAUS43 KUNR 010557
MTR2WX
METAR K2WX 010556Z AUTO 27004KT 18/16 A2985 RMK AO1 SLP088 T01830156
10289 20178 51010





000
SAUS43 KUNR 010501 COR
MTRD07
METAR KD07 010456Z AUTO 18010KT 17/15 A2987 RMK AO1 PK WND
23030/0357 WSHFT 0357 SLPNO P0003 T01720150





000
SAUS43 KUNR 010501 COR
MTRD07
METAR KD07 010456Z AUTO 18010KT 17/15 A2987 RMK AO1 PK WND
23030/0357 WSHFT 0357 SLPNO P0003 T01720150





000
SAUS43 KUNR 010459 COR
MTRD07
METAR KD07 010456Z AUTO 18010KT 17/15 A2987 RMK AO1 PK WND
23030/0357 WSHFT 0357 SLPNO P0003 T01720150





000
SAUS43 KUNR 010459 COR
MTRD07
METAR KD07 010456Z AUTO 18010KT 17/15 A2987 RMK AO1 PK WND
23030/0357 WSHFT 0357 SLPNO P0003 T01720150





000
SAUS43 KUNR 010457
MTRD07
METAR KD07 010456Z AUTO 18010KT 17/15 A2987 RMK AO1 PK WND
23030/0357 WSHFT 0357 SLPNO P0003 T01720150





000
SAUS43 KUNR 010457
MTR2WX
METAR K2WX 010456Z AUTO 30004KT 18/15 A2985 RMK AO1 SLP085 T01780150





000
SAUS43 KUNR 010457
MTR2WX
METAR K2WX 010456Z AUTO 30004KT 18/15 A2985 RMK AO1 SLP085 T01780150





000
SAUS43 KUNR 010422 COR
MTRD07
SPECI KD07 010417Z AUTO 21010KT 19/14 A2984 RMK AO1 PK WND
23030/0357 WSHFT 0357 P0003 T01890139





000
SAUS43 KUNR 010422 COR
MTRD07
SPECI KD07 010417Z AUTO 21010KT 19/14 A2984 RMK AO1 PK WND
23030/0357 WSHFT 0357 P0003 T01890139





000
SAUS43 KUNR 010420 COR
MTRD07
SPECI KD07 010417Z AUTO 21010KT 19/14 A2984 RMK AO1 PK WND
23030/0357 WSHFT 0357 P0003 T01890139





000
SAUS43 KUNR 010418
MTRD07
SPECI KD07 010417Z AUTO 21010KT 19/14 A2984 RMK AO1 PK WND
23030/0357 WSHFT 0357 P0003 T01890139





000
SAUS43 KUNR 010418
MTRD07
SPECI KD07 010417Z AUTO 21010KT 19/14 A2984 RMK AO1 PK WND
23030/0357 WSHFT 0357 P0003 T01890139





000
SAUS43 KUNR 010401 COR
MTRD07
METAR KD07 010356Z AUTO 25024G32KT 19/16 A2995 RMK AO1 PK WND
28032/0349 SLP131 P0002 T01890161





000
SAUS43 KUNR 010359 COR
MTRD07
METAR KD07 010356Z AUTO 25024G32KT 19/16 A2995 RMK AO1 PK WND
28032/0349 SLP131 P0002 T01890161





000
SAUS43 KUNR 010357
MTR2WX
METAR K2WX 010356Z AUTO 11008KT 19/16 A2984 RMK AO1 SLP083 T01890156





000
SAUS43 KUNR 010357
MTRD07
METAR KD07 010356Z AUTO 25024G32KT 19/16 A2995 RMK AO1 PK WND
28032/0349 SLP131 P0002 T01890161





000
SAUS43 KUNR 010258
MTR2WX
METAR K2WX 010256Z AUTO 07013G25KT 22/16 A2982 RMK AO1 PK WND
06027/0236 SLP078 T02170156 53012





000
SAUS43 KUNR 010258
MTR2WX
METAR K2WX 010256Z AUTO 07013G25KT 22/16 A2982 RMK AO1 PK WND
06027/0236 SLP078 T02170156 53012





000
SAUS43 KUNR 010157
MTR2WX
METAR K2WX 010156Z AUTO 19009KT 26/20 A2979 RMK AO1 SLP064 T02610200





000
SAUS43 KUNR 010157
MTRD07
METAR KD07 010156Z AUTO 15007KT 23/17 A2988 RMK AO1 SLP103 T02280172





000
SAUS43 KUNR 010157
MTR2WX
METAR K2WX 010156Z AUTO 19009KT 26/20 A2979 RMK AO1 SLP064 T02610200





000
SAUS43 KUNR 010157
MTRD07
METAR KD07 010156Z AUTO 15007KT 23/17 A2988 RMK AO1 SLP103 T02280172





000
SAUS43 KUNR 010057
MTRD07
METAR KD07 010056Z AUTO 16013KT 24/17 A2986 RMK AO1 SLP095 T02390172





000
SAUS43 KUNR 010057
MTR2WX
METAR K2WX 010056Z AUTO 17011KT 28/19 A2978 RMK AO1 SLP058 T02830194





000
SAUS43 KUNR 010057
MTR2WX
METAR K2WX 010056Z AUTO 17011KT 28/19 A2978 RMK AO1 SLP058 T02830194





000
SAUS43 KUNR 010057
MTRD07
METAR KD07 010056Z AUTO 16013KT 24/17 A2986 RMK AO1 SLP095 T02390172





000
SAUS43 KUNR 302357
MTR2WX
METAR K2WX 302356Z AUTO 15011KT 29/19 A2978 RMK AO1 SLP061 T02890194
10294 20256 58014





000
SAUS43 KUNR 302357
MTRD07
METAR KD07 302356Z AUTO 16017G23KT 25/17 A2986 RMK AO1 SLP095
T02500172 10267 20244 58013





000
SAUS43 KUNR 302357
MTR2WX
METAR K2WX 302356Z AUTO 15011KT 29/19 A2978 RMK AO1 SLP061 T02890194
10294 20256 58014





000
SAUS43 KUNR 302357
MTRD07
METAR KD07 302356Z AUTO 16017G23KT 25/17 A2986 RMK AO1 SLP095
T02500172 10267 20244 58013





000
SAUS43 KUNR 302257
MTRD07
METAR KD07 302256Z AUTO 13015KT 24/17 A2987 RMK AO1 SLP100 T02440172





000
SAUS43 KUNR 302257
MTR2WX
METAR K2WX 302256Z AUTO 16012KT 29/19 A2981 RMK AO1 SLP071 T02890194





000
SAUS43 KUNR 302257
MTRD07
METAR KD07 302256Z AUTO 13015KT 24/17 A2987 RMK AO1 SLP100 T02440172





000
SAUS43 KUNR 302257
MTR2WX
METAR K2WX 302256Z AUTO 16012KT 29/19 A2981 RMK AO1 SLP071 T02890194





000
SAUS43 KUNR 302159
MTR2WX
METAR K2WX 302156Z AUTO 14011KT 29/19 A2982 RMK AO1 SLP075 T02890189





000
SAUS43 KUNR 302157
MTRD07
METAR KD07 302156Z AUTO 12015KT 25/17 A2989 RMK AO1 SLP107 T02500167





000
SAUS43 KUNR 302058
MTR2WX
METAR K2WX 302056Z AUTO 12009KT 27/19 A2983 RMK AO1 SLP076 T02720189
58010





000
SAUS43 KUNR 302057
MTRD07
METAR KD07 302056Z AUTO 13014G20KT 27/17 A2990 RMK AO1 SLP108
T02670167 58001





000
SAUS43 KUNR 301957
MTR2WX
METAR K2WX 301956Z AUTO 13008KT 27/19 A2985 RMK AO1 SLP084 T02670189





000
SAUS43 KUNR 301957
MTRD07
METAR KD07 301956Z AUTO 13013KT 25/16 A2990 RMK AO1 SLP110 T02500156





000
SAUS43 KUNR 301859
MTR2WX
METAR K2WX 301856Z AUTO 11010KT 27/19 A2986 RMK AO1 SLP087 T02670189





000
SAUS43 KUNR 301857
MTRD07
METAR KD07 301856Z AUTO 15012G19KT 26/17 A2990 RMK AO1 SLP111
T02560167





000
SAUS43 KUNR 301758
MTR2WX
METAR K2WX 301756Z AUTO 08007KT 26/18 A2986 RMK AO1 SLP087 T02560183
10267 20183 55001





000
SAUS43 KUNR 301758
MTR2WX
METAR K2WX 301756Z AUTO 08007KT 26/18 A2986 RMK AO1 SLP087 T02560183
10267 20183 55001





000
SAUS43 KUNR 301757
MTRD07
METAR KD07 301756Z AUTO 13013G20KT 24/16 A2990 RMK AO1 SLP109
T02440156 10250 20194 58007





000
SAUS43 KUNR 301757
MTRD07
METAR KD07 301756Z AUTO 13013G20KT 24/16 A2990 RMK AO1 SLP109
T02440156 10250 20194 58007





000
SAUS43 KUNR 301657
MTR2WX
METAR K2WX 301656Z AUTO 12009KT 26/18 A2986 RMK AO1 SLP084 T02610178





000
SAUS43 KUNR 301657
MTRD07
METAR KD07 301656Z AUTO A2991 RMK AO1 SLPNO





000
SAUS43 KUNR 301558
MTR2WX
METAR K2WX 301556Z AUTO VRB03KT 24/18 A2986 RMK AO1 SLP086 T02440183





000
SAUS43 KUNR 301557
MTRD07
METAR KD07 301556Z AUTO 13017KT 23/16 A2991 RMK AO1 SLP112 T02280156





000
SAUS43 KUNR 301458
MTR2WX
METAR K2WX 301456Z AUTO 09007KT 21/17 A2987 RMK AO1 SLP089 T02110172
56006





000
SAUS43 KUNR 301458
MTRD07
METAR KD07 301456Z AUTO 13017G23KT 22/16 A2992 RMK AO1 SLP117
T02170156 50002





000
SAUS43 KUNR 301458
MTRD07
METAR KD07 301456Z AUTO 13017G23KT 22/16 A2992 RMK AO1 SLP117
T02170156 50002





000
SAUS43 KUNR 301458
MTR2WX
METAR K2WX 301456Z AUTO 09007KT 21/17 A2987 RMK AO1 SLP089 T02110172
56006





000
SAUS43 KUNR 301358
MTR2WX
METAR K2WX 301356Z AUTO 07009KT 20/17 A2987 RMK AO1 SLP088 T02000167





000
SAUS43 KUNR 301358
MTR2WX
METAR K2WX 301356Z AUTO 07009KT 20/17 A2987 RMK AO1 SLP088 T02000167





000
SAUS43 KUNR 301357
MTRD07
METAR KD07 301356Z AUTO 12012KT 21/16 A2993 RMK AO1 SLP119 T02060156





000
SAUS43 KUNR 301357
MTRD07
METAR KD07 301356Z AUTO 12012KT 21/16 A2993 RMK AO1 SLP119 T02060156





000
SAUS43 KUNR 301258
MTR2WX
METAR K2WX 301256Z AUTO 05007KT 19/17 A2988 RMK AO1 SLP092 T01940167





000
SAUS43 KUNR 301258
MTR2WX
METAR K2WX 301256Z AUTO 05007KT 19/17 A2988 RMK AO1 SLP092 T01940167





000
SAUS43 KUNR 301257
MTRD07
METAR KD07 301256Z AUTO 14015G22KT 20/16 A2993 RMK AO1 SLP118
T02000156





000
SAUS43 KUNR 301257
MTRD07
METAR KD07 301256Z AUTO 14015G22KT 20/16 A2993 RMK AO1 SLP118
T02000156





000
SAUS43 KUNR 301158
MTR2WX
METAR K2WX 301156Z AUTO 03009KT 18/14 A2989 RMK AO1 SLP091 7////
T01830144 10239 20172 50001





000
SAUS43 KUNR 301158
MTR2WX
METAR K2WX 301156Z AUTO 03009KT 18/14 A2989 RMK AO1 SLP091 7////
T01830144 10239 20172 50001





000
SAUS43 KUNR 301157
MTRD07
METAR KD07 301156Z AUTO 13014KT 19/15 A2992 RMK AO1 SLP111 T01940150
10217 20189 50006





000
SAUS43 KUNR 301058
MTR2WX
METAR K2WX 301056Z AUTO 31007KT 18/14 A2989 RMK AO1 SLP095 T01780139





000
SAUS43 KUNR 301058
MTR2WX
METAR K2WX 301056Z AUTO 31007KT 18/14 A2989 RMK AO1 SLP095 T01780139





000
SAUS43 KUNR 301057
MTRD07
METAR KD07 301056Z AUTO 11008KT 19/16 A2992 RMK AO1 SLP112 T01940156





000
SAUS43 KUNR 300958
MTR2WX
METAR K2WX 300956Z AUTO 26007KT 18/14 A2989 RMK AO1 SLP094 T01780139





000
SAUS43 KUNR 300958
MTRD07
METAR KD07 300956Z AUTO 32003KT 21/16 A2990 RMK AO1 SLP103 T02110156





000
SAUS43 KUNR 300857
MTR2WX
METAR K2WX 300856Z AUTO 27004KT 20/14 A2988 RMK AO1 SLP089 T02000139
58009





000
SAUS43 KUNR 300857
MTRD07
METAR KD07 300856Z AUTO 22004KT 21/15 A2990 RMK AO1 SLP104 T02110150
58012





000
SAUS43 KUNR 300857
MTR2WX
METAR K2WX 300856Z AUTO 27004KT 20/14 A2988 RMK AO1 SLP089 T02000139
58009





000
SAUS43 KUNR 300857
MTRD07
METAR KD07 300856Z AUTO 22004KT 21/15 A2990 RMK AO1 SLP104 T02110150
58012





000
SAUS43 KUNR 300757
MTR2WX
METAR K2WX 300756Z AUTO 00000KT 20/15 A2990 RMK AO1 SLP096 T02000150





000
SAUS43 KUNR 300757
MTRD07
METAR KD07 300756Z AUTO 00000KT 22/15 A2992 RMK AO1 SLP110 T02170150





000
SAUS43 KUNR 300659
MTR2WX
METAR K2WX 300656Z AUTO 33005KT 21/14 A2992 RMK AO1 SLP101 T02110144
403440167





000
SAUS43 KUNR 300659
MTR2WX
METAR K2WX 300656Z AUTO 33005KT 21/14 A2992 RMK AO1 SLP101 T02110144
403440167





000
SAUS43 KUNR 300657
MTRD07
METAR KD07 300656Z AUTO 36009KT 300V010 19/16 A2992 RMK AO1 SLP114
T01940161 403330156





000
SAUS43 KUNR 300657
MTRD07
METAR KD07 300656Z AUTO 36009KT 300V010 19/16 A2992 RMK AO1 SLP114
T01940161 403330156





000
SAUS43 KUNR 300558
MTR2WX
METAR K2WX 300556Z AUTO 03005KT 23/15 A2991 RMK AO1 SLPNO T02280150
10333 20222 58001





000
SAUS43 KUNR 300558
MTR2WX
METAR K2WX 300556Z AUTO 03005KT 23/15 A2991 RMK AO1 SLPNO T02280150
10333 20222 58001





000
SAUS43 KUNR 300557
MTRD07
METAR KD07 300556Z AUTO 20009KT 22/16 A2994 RMK AO1 SLP117 T02170161
10333 20217 58004





000
SAUS43 KUNR 300557
MTRD07
METAR KD07 300556Z AUTO 20009KT 22/16 A2994 RMK AO1 SLP117 T02170161
10333 20217 58004





000
SAUS43 KUNR 300458
MTR2WX
METAR K2WX 300456Z AUTO 31004KT 24/14 A2991 RMK AO1 SLP100 T02390144





000
SAUS43 KUNR 300458
MTR2WX
METAR K2WX 300456Z AUTO 31004KT 24/14 A2991 RMK AO1 SLP100 T02390144





000
SAUS43 KUNR 300457
MTRD07
METAR KD07 300456Z AUTO 21010KT 22/17 A2995 RMK AO1 SLP122 T02220172





000
SAUS43 KUNR 300457
MTRD07
METAR KD07 300456Z AUTO 21010KT 22/17 A2995 RMK AO1 SLP122 T02220172





000
SAUS43 KUNR 300357
MTRD07
METAR KD07 300356Z AUTO 20010KT 23/17 A2995 RMK AO1 SLP123 T02330172





000
SAUS43 KUNR 300357
MTR2WX
METAR K2WX 300356Z AUTO 29006KT 24/16 A2993 RMK AO1 SLP106 T02440161





000
SAUS43 KUNR 300357
MTRD07
METAR KD07 300356Z AUTO 20010KT 23/17 A2995 RMK AO1 SLP123 T02330172





000
SAUS43 KUNR 300257
MTRD07
METAR KD07 300256Z AUTO 19009KT 24/17 A2995 RMK AO1 SLP123 T02440167
56006





000
SAUS43 KUNR 300257
MTR2WX
METAR K2WX 300256Z AUTO 27005KT 27/18 A2992 RMK AO1 SLP101 T02720183
55004





000
SAUS43 KUNR 300257
MTR2WX
METAR K2WX 300256Z AUTO 27005KT 27/18 A2992 RMK AO1 SLP101 T02720183
55004





000
SAUS43 KUNR 300257
MTRD07
METAR KD07 300256Z AUTO 19009KT 24/17 A2995 RMK AO1 SLP123 T02440167
56006





000
SAUS43 KUNR 300157
MTR2WX
METAR K2WX 300156Z AUTO 23006KT 29/18 A2991 RMK AO1 SLP098 T02890183





000
SAUS43 KUNR 300157
MTRD07
METAR KD07 300156Z AUTO 19008KT 26/18 A2995 RMK AO1 SLP126 T02560178





000
SAUS43 KUNR 300157
MTR2WX
METAR K2WX 300156Z AUTO 23006KT 29/18 A2991 RMK AO1 SLP098 T02890183





000
SAUS43 KUNR 300157
MTRD07
METAR KD07 300156Z AUTO 19008KT 26/18 A2995 RMK AO1 SLP126 T02560178





000
SAUS43 KUNR 300058
MTRD07
METAR KD07 300056Z AUTO 00000KT 31/13 A2996 RMK AO1 SLP124 T03110133





000
SAUS43 KUNR 300057
MTR2WX
METAR K2WX 300056Z AUTO 25005KT 31/16 A2991 RMK AO1 SLP100 T03110161





000
SAUS43 KUNR 292358
MTR2WX
METAR K2WX 292356Z AUTO 29007KT 33/13 A2993 RMK AO1 SLP107 T03330133
10344 20311 58015





000
SAUS43 KUNR 292358
MTRD07
METAR KD07 292356Z AUTO 00000KT 33/15 A2997 RMK AO1 SLP130 T03280150
10333 20306 56014





000
SAUS43 KUNR 292358
MTR2WX
METAR K2WX 292356Z AUTO 29007KT 33/13 A2993 RMK AO1 SLP107 T03330133
10344 20311 58015





000
SAUS43 KUNR 292358
MTRD07
METAR KD07 292356Z AUTO 00000KT 33/15 A2997 RMK AO1 SLP130 T03280150
10333 20306 56014





000
SAUS43 KUNR 292258
MTR2WX
METAR K2WX 292256Z AUTO 29012KT 33/12 A2995 RMK AO1 SLP113 T03330122





000
SAUS43 KUNR 292258
MTRD07
METAR KD07 292256Z AUTO VRB05KT 33/14 A2999 RMK AO1 SLP137 T03280139





000
SAUS43 KUNR 292258
MTR2WX
METAR K2WX 292256Z AUTO 29012KT 33/12 A2995 RMK AO1 SLP113 T03330122





000
SAUS43 KUNR 292158
MTR2WX
METAR K2WX 292156Z AUTO 27011KT 34/13 A2996 RMK AO1 SLP119 T03390128





000
SAUS43 KUNR 292157
MTRD07
METAR KD07 292156Z AUTO VRB04KT 33/14 A3000 RMK AO1 SLP140 T03330144





000
SAUS43 KUNR 292157
MTRD07
METAR KD07 292156Z AUTO VRB04KT 33/14 A3000 RMK AO1 SLP140 T03330144





000
SAUS43 KUNR 292057
MTR2WX
METAR K2WX 292056Z AUTO 26011KT 33/14 A2998 RMK AO1 SLP123 T03330139
56015





000
SAUS43 KUNR 292057
MTRD07
METAR KD07 292056Z AUTO VRB04KT 32/14 A3001 RMK AO1 SLP146 T03220144
58008





000
SAUS43 KUNR 292057
MTRD07
METAR KD07 292056Z AUTO VRB04KT 32/14 A3001 RMK AO1 SLP146 T03220144
58008





000
SAUS43 KUNR 292057
MTR2WX
METAR K2WX 292056Z AUTO 26011KT 33/14 A2998 RMK AO1 SLP123 T03330139
56015





000
SAUS43 KUNR 291957
MTR2WX
METAR K2WX 291956Z AUTO 28005KT 32/14 A3000 RMK AO1 SLP129 T03170139





000
SAUS43 KUNR 291957
MTRD07
METAR KD07 291956Z AUTO VRB04KT 32/12 A3003 RMK AO1 SLP151 T03220117





000
SAUS43 KUNR 291957
MTR2WX
METAR K2WX 291956Z AUTO 28005KT 32/14 A3000 RMK AO1 SLP129 T03170139





000
SAUS43 KUNR 291957
MTRD07
METAR KD07 291956Z AUTO VRB04KT 32/12 A3003 RMK AO1 SLP151 T03220117





000
SAUS43 KUNR 291858
MTRD07
METAR KD07 291856Z AUTO 30006KT 31/14 A3003 RMK AO1 SLP152 T03110144





000
SAUS43 KUNR 291858
MTR2WX
METAR K2WX 291856Z AUTO 31005KT 32/12 A3000 RMK AO1 SLP131 T03220122





000
SAUS43 KUNR 291758
MTR2WX
METAR K2WX 291756Z AUTO A3002 RMK AO1 SLPNO 6//// 10311 20167 53001
PNO $





000
SAUS43 KUNR 291757
MTRD07
METAR KD07 291756Z AUTO 31006KT 31/15 A3004 RMK AO1 SLP155 T03060150
10306 20183 56002





000
SAUS43 KUNR 291757
MTRD07
METAR KD07 291756Z AUTO 31006KT 31/15 A3004 RMK AO1 SLP155 T03060150
10306 20183 56002





000
SAUS43 KUNR 291657
MTR2WX
METAR K2WX 291656Z AUTO 23005KT 31/16 A3001 RMK AO1 SLP134 T03060156
PNO





000
SAUS43 KUNR 291657
MTRD07
METAR KD07 291656Z AUTO 28004KT 29/14 A3004 RMK AO1 SLP154 T02940144





000
SAUS43 KUNR 291558
MTR2WX
METAR K2WX 291556Z AUTO 23005KT 28/18 A3001 RMK AO1 SLP138 T02780178
PNO





000
SAUS43 KUNR 291557
MTRD07
METAR KD07 291556Z AUTO VRB03KT 29/17 A3004 RMK AO1 SLP154 T02890167





000
SAUS43 KUNR 291557
MTRD07
METAR KD07 291556Z AUTO VRB03KT 29/17 A3004 RMK AO1 SLP154 T02890167





000
SAUS43 KUNR 291458
MTR2WX
METAR K2WX 291456Z AUTO 26004KT 26/17 A3002 RMK AO1 SLP142 6////
T02560172 51006 PNO





000
SAUS43 KUNR 291458
MTR2WX
METAR K2WX 291456Z AUTO 26004KT 26/17 A3002 RMK AO1 SLP142 6////
T02560172 51006 PNO





000
SAUS43 KUNR 291457
MTRD07
METAR KD07 291456Z AUTO 34003KT 26/17 A3005 RMK AO1 SLP158 T02610172
50006





000
SAUS43 KUNR 291457
MTRD07
METAR KD07 291456Z AUTO 34003KT 26/17 A3005 RMK AO1 SLP158 T02610172
50006





000
SAUS43 KUNR 291357
MTRD07
METAR KD07 291356Z AUTO 34004KT 22/16 A3005 RMK AO1 SLP159 T02220156





000
SAUS43 KUNR 291357
MTR2WX
METAR K2WX 291356Z AUTO 32003KT 23/16 A3002 RMK AO1 SLP142 T02280156
PNO





000
SAUS43 KUNR 291357
MTR2WX
METAR K2WX 291356Z AUTO 32003KT 23/16 A3002 RMK AO1 SLP142 T02280156
PNO





000
SAUS43 KUNR 291357
MTRD07
METAR KD07 291356Z AUTO 34004KT 22/16 A3005 RMK AO1 SLP159 T02220156





000
SAUS43 KUNR 291258
MTRD07
METAR KD07 291256Z AUTO 00000KT 21/15 A3004 RMK AO1 SLP156 T02110150





000
SAUS43 KUNR 291258
MTRD07
METAR KD07 291256Z AUTO 00000KT 21/15 A3004 RMK AO1 SLP156 T02110150





000
SAUS43 KUNR 291257
MTR2WX
METAR K2WX 291256Z AUTO 00000KT 20/15 A3001 RMK AO1 SLP139 T02000150
PNO





000
SAUS43 KUNR 291257
MTR2WX
METAR K2WX 291256Z AUTO 00000KT 20/15 A3001 RMK AO1 SLP139 T02000150
PNO





000
SAUS43 KUNR 291157
MTRD07
METAR KD07 291156Z AUTO 22008KT 18/13 A3003 RMK AO1 SLP152 T01830133
10194 20156 50004





000
SAUS43 KUNR 291157
MTR2WX
METAR K2WX 291156Z AUTO 06004KT 17/13 A3000 RMK AO1 SLP136 6////
7//// T01720133 10217 20167 53004 PNO





000
SAUS43 KUNR 291157
MTRD07
METAR KD07 291156Z AUTO 22008KT 18/13 A3003 RMK AO1 SLP152 T01830133
10194 20156 50004





000
SAUS43 KUNR 291157
MTR2WX
METAR K2WX 291156Z AUTO 06004KT 17/13 A3000 RMK AO1 SLP136 6////
7//// T01720133 10217 20167 53004 PNO





000
SAUS43 KUNR 291057
MTR2WX
METAR K2WX 291056Z AUTO 00000KT 18/13 A2999 RMK AO1 SLP131 T01780133
PNO





000
SAUS43 KUNR 291057
MTRD07
METAR KD07 291056Z AUTO 22007KT 16/12 A3003 RMK AO1 SLP155 T01610122





000
SAUS43 KUNR 290958
MTR2WX
METAR K2WX 290956Z AUTO 20006KT 17/13 A2999 RMK AO1 SLP132 T01720133
PNO





000
SAUS43 KUNR 290957
MTRD07
METAR KD07 290956Z AUTO 20008KT 16/12 A3002 RMK AO1 SLP151 T01610122





000
SAUS43 KUNR 290857
MTR2WX
METAR K2WX 290856Z AUTO 21005KT 18/14 A2999 RMK AO1 SLP130 6////
T01830139 58004 PNO





000
SAUS43 KUNR 290857
MTRD07
METAR KD07 290856Z AUTO 18009KT 17/13 A3001 RMK AO1 SLP149 T01670128
58006





000
SAUS43 KUNR 290857
MTR2WX
METAR K2WX 290856Z AUTO 21005KT 18/14 A2999 RMK AO1 SLP130 6////
T01830139 58004 PNO





000
SAUS43 KUNR 290857
MTRD07
METAR KD07 290856Z AUTO 18009KT 17/13 A3001 RMK AO1 SLP149 T01670128
58006





000
SAUS43 KUNR 290758
MTRD07
METAR KD07 290756Z AUTO 16007KT 17/12 A3004 RMK AO1 SLP156 T01670117





000
SAUS43 KUNR 290757
MTR2WX
METAR K2WX 290756Z AUTO 22003KT 21/14 A3000 RMK AO1 SLP130 T02060139
PNO





000
SAUS43 KUNR 290658
MTR2WX
METAR K2WX 290656Z AUTO 20004KT 22/14 A3000 RMK AO1 SLP133 T02170139
403170139 PNO





000
SAUS43 KUNR 290657
MTRD07
METAR KD07 290656Z AUTO 19004KT 19/12 A3004 RMK AO1 SLP156 T01890117
402940139





000
SAUS43 KUNR 290558
MTR2WX
METAR K2WX 290556Z AUTO 00000KT 21/14 A3000 RMK AO1 SLP135 6////
T02110139 10300 20206 50007 PNO





000
SAUS43 KUNR 290558
MTR2WX
METAR K2WX 290556Z AUTO 00000KT 21/14 A3000 RMK AO1 SLP135 6////
T02110139 10300 20206 50007 PNO





000
SAUS43 KUNR 290557
MTRD07
METAR KD07 290556Z AUTO 19004KT 18/12 A3003 RMK AO1 SLP155 T01830117
10283 20178 51003





000
SAUS43 KUNR 290557
MTRD07
METAR KD07 290556Z AUTO 19004KT 18/12 A3003 RMK AO1 SLP155 T01830117
10283 20178 51003





    US Dept of Commerce
    National Oceanic and Atmospheric Administration
    National Weather Service
    1325 East West Highway
    Silver Spring, MD 20910
    Page Author: NWS Internet Services Team
Disclaimer
Information Quality
Credits
Glossary
Privacy Policy
Freedom of Information Act (FOIA)
About Us
Career Opportunities